sensor_id;sensor_type;location;lat;lon;timestamp;pressure;altitude;pressure_sealevel;temperature;humidity
56392;BME280;42289;53.582;9.714;2022-08-21T00:02:26;101623.31;;;13.52;100.00
56392;BME280;42289;53.582;9.714;2022-08-21T00:04:54;101632.91;;;13.52;100.00
56392;BME280;42289;53.582;9.714;2022-08-21T00:07:21;101649.59;;;13.48;100.00
56392;BME280;42289;53.582;9.714;2022-08-21T00:09:47;101658.53;;;13.42;100.00
56392;BME280;42289;53.582;9.714;2022-08-21T00:12:14;101663.16;;;13.34;100.00
56392;BME280;42289;53.582;9.714;2022-08-21T00:14:40;101688.53;;;13.30;100.00
56392;BME280;42289;53.582;9.714;2022-08-21T00:17:08;101706.84;;;13.28;100.00
56392;BME280;42289;53.582;9.714;2022-08-21T00:19:35;101739.31;;;13.21;100.00
56392;BME280;42289;53.582;9.714;2022-08-21T00:22:01;101744.88;;;13.37;100.00
56392;BME280;42289;53.582;9.714;2022-08-21T00:24:28;101757.72;;;13.43;100.00
56392;BME280;42289;53.582;9.714;2022-08-21T00:26:54;101755.31;;;13.37;100.00
56392;BME280;42289;53.582;9.714;2022-08-21T00:29:20;101756.88;;;13.43;100.00
56392;BME280;42289;53.582;9.714;2022-08-21T00:31:47;101756.97;;;13.40;100.00
56392;BME280;42289;53.582;9.714;2022-08-21T00:34:15;101757.91;;;13.37;100.00
56392;BME280;42289;53.582;9.714;2022-08-21T00:36:41;101754.22;;;13.44;100.00
56392;BME280;42289;53.582;9.714;2022-08-21T00:39:08;101754.09;;;13.48;100.00
56392;BME280;42289;53.582;9.714;2022-08-21T00:41:36;101771.25;;;13.55;100.00
56392;BME280;42289;53.582;9.714;2022-08-21T00:44:05;101767.03;;;13.51;100.00
56392;BME280;42289;53.582;9.714;2022-08-21T00:46:31;101765.34;;;13.50;100.00
56392;BME280;42289;53.582;9.714;2022-08-21T00:48:58;101761.94;;;13.48;100.00
56392;BME280;42289;53.582;9.714;2022-08-21T00:51:30;101771.16;;;13.58;100.00
56392;BME280;42289;53.582;9.714;2022-08-21T00:54:01;101780.03;;;13.52;100.00
56392;BME280;42289;53.582;9.714;2022-08-21T00:56:27;101794.03;;;13.51;100.00
56392;BME280;42289;53.582;9.714;2022-08-21T00:58:55;101790.78;;;13.44;100.00
56392;BME280;42289;53.582;9.714;2022-08-21T01:01:22;101795.19;;;13.42;100.00
56392;BME280;42289;53.582;9.714;2022-08-21T01:03:49;101799.44;;;13.45;100.00
56392;BME280;42289;53.582;9.714;2022-08-21T01:06:16;101802.97;;;13.44;100.00
56392;BME280;42289;53.582;9.714;2022-08-21T01:08:44;101809.69;;;13.51;100.00
56392;BME280;42289;53.582;9.714;2022-08-21T01:11:11;101812.56;;;13.43;100.00
56392;BME280;42289;53.582;9.714;2022-08-21T01:13:38;101821.16;;;13.47;100.00
56392;BME280;42289;53.582;9.714;2022-08-21T01:16:12;101817.78;;;13.43;100.00
56392;BME280;42289;53.582;9.714;2022-08-21T01:18:40;101839.59;;;13.42;100.00
56392;BME280;42289;53.582;9.714;2022-08-21T01:21:13;101838.81;;;13.40;100.00
56392;BME280;42289;53.582;9.714;2022-08-21T01:23:42;101840.47;;;13.41;100.00
56392;BME280;42289;53.582;9.714;2022-08-21T01:26:10;101963.44;;;13.35;100.00
56392;BME280;42289;53.582;9.714;2022-08-21T01:28:40;101965.72;;;13.46;100.00
56392;BME280;42289;53.582;9.714;2022-08-21T01:31:10;101953.09;;;13.59;100.00
56392;BME280;42289;53.582;9.714;2022-08-21T01:33:38;101944.22;;;13.65;100.00
56392;BME280;42289;53.582;9.714;2022-08-21T01:36:04;101930.47;;;13.59;100.00
56392;BME280;42289;53.582;9.714;2022-08-21T01:38:32;101918.53;;;13.51;100.00
56392;BME280;42289;53.582;9.714;2022-08-21T01:40:59;101926.44;;;13.49;100.00
56392;BME280;42289;53.582;9.714;2022-08-21T01:43:25;101922.09;;;13.50;100.00
56392;BME280;42289;53.582;9.714;2022-08-21T01:45:51;101923.06;;;13.45;100.00
56392;BME280;42289;53.582;9.714;2022-08-21T01:48:18;101919.53;;;13.46;100.00
56392;BME280;42289;53.582;9.714;2022-08-21T01:50:44;101921.63;;;13.37;100.00
56392;BME280;42289;53.582;9.714;2022-08-21T01:53:11;101915.56;;;13.36;100.00
56392;BME280;42289;53.582;9.714;2022-08-21T01:55:39;101913.47;;;13.46;100.00
56392;BME280;42289;53.582;9.714;2022-08-21T01:58:06;101908.41;;;13.41;100.00
56392;BME280;42289;53.582;9.714;2022-08-21T02:00:32;101911.16;;;13.37;100.00
56392;BME280;42289;53.582;9.714;2022-08-21T02:02:59;101900.66;;;13.38;100.00
56392;BME280;42289;53.582;9.714;2022-08-21T02:05:25;101904.38;;;13.31;100.00
56392;BME280;42289;53.582;9.714;2022-08-21T02:07:55;101901.22;;;13.20;100.00
56392;BME280;42289;53.582;9.714;2022-08-21T02:10:24;101901.03;;;13.26;100.00
56392;BME280;42289;53.582;9.714;2022-08-21T02:12:53;101897.16;;;13.39;100.00
56392;BME280;42289;53.582;9.714;2022-08-21T02:15:20;101897.00;;;13.44;100.00
56392;BME280;42289;53.582;9.714;2022-08-21T02:17:48;101897.94;;;13.41;100.00
56392;BME280;42289;53.582;9.714;2022-08-21T02:20:17;101884.38;;;13.30;100.00
56392;BME280;42289;53.582;9.714;2022-08-21T02:22:44;101887.94;;;13.27;100.00
56392;BME280;42289;53.582;9.714;2022-08-21T02:25:11;101889.88;;;13.21;100.00
56392;BME280;42289;53.582;9.714;2022-08-21T02:27:39;101901.09;;;13.24;100.00
56392;BME280;42289;53.582;9.714;2022-08-21T02:30:10;101889.00;;;13.22;100.00
56392;BME280;42289;53.582;9.714;2022-08-21T02:32:37;101893.22;;;13.26;100.00
56392;BME280;42289;53.582;9.714;2022-08-21T02:35:05;101883.66;;;13.25;100.00
56392;BME280;42289;53.582;9.714;2022-08-21T02:37:32;101885.44;;;13.24;100.00
56392;BME280;42289;53.582;9.714;2022-08-21T02:39:59;101876.84;;;13.21;100.00
56392;BME280;42289;53.582;9.714;2022-08-21T02:42:26;101873.22;;;13.25;100.00
56392;BME280;42289;53.582;9.714;2022-08-21T02:44:52;101875.94;;;13.22;100.00
56392;BME280;42289;53.582;9.714;2022-08-21T02:47:20;101880.81;;;13.33;100.00
56392;BME280;42289;53.582;9.714;2022-08-21T02:49:46;101876.00;;;13.20;100.00
56392;BME280;42289;53.582;9.714;2022-08-21T02:52:13;101867.22;;;13.23;100.00
56392;BME280;42289;53.582;9.714;2022-08-21T02:54:39;101862.94;;;13.20;100.00
56392;BME280;42289;53.582;9.714;2022-08-21T02:57:06;101861.38;;;13.15;100.00
56392;BME280;42289;53.582;9.714;2022-08-21T02:59:33;101865.94;;;13.08;100.00
56392;BME280;42289;53.582;9.714;2022-08-21T03:01:59;101865.84;;;13.11;100.00
56392;BME280;42289;53.582;9.714;2022-08-21T03:04:27;101872.19;;;13.02;100.00
56392;BME280;42289;53.582;9.714;2022-08-21T03:06:54;101879.19;;;13.02;100.00
56392;BME280;42289;53.582;9.714;2022-08-21T03:09:20;101874.13;;;12.97;100.00
56392;BME280;42289;53.582;9.714;2022-08-21T03:11:46;101875.13;;;12.93;100.00
56392;BME280;42289;53.582;9.714;2022-08-21T03:14:13;101881.25;;;12.92;100.00
56392;BME280;42289;53.582;9.714;2022-08-21T03:16:39;101881.06;;;12.96;100.00
56392;BME280;42289;53.582;9.714;2022-08-21T03:19:07;101882.63;;;13.04;100.00
56392;BME280;42289;53.582;9.714;2022-08-21T03:21:35;101877.56;;;12.98;100.00
56392;BME280;42289;53.582;9.714;2022-08-21T03:24:02;101877.81;;;12.90;100.00
56392;BME280;42289;53.582;9.714;2022-08-21T03:26:29;101877.75;;;12.91;100.00
56392;BME280;42289;53.582;9.714;2022-08-21T03:28:56;101873.47;;;12.90;100.00
56392;BME280;42289;53.582;9.714;2022-08-21T03:31:22;101877.63;;;12.96;100.00
56392;BME280;42289;53.582;9.714;2022-08-21T03:33:49;101876.97;;;12.89;100.00
56392;BME280;42289;53.582;9.714;2022-08-21T03:36:16;101876.03;;;12.92;100.00
56392;BME280;42289;53.582;9.714;2022-08-21T03:38:44;101867.19;;;12.96;100.00
56392;BME280;42289;53.582;9.714;2022-08-21T03:41:10;101874.19;;;12.94;100.00
56392;BME280;42289;53.582;9.714;2022-08-21T03:43:37;101870.03;;;12.88;100.00
56392;BME280;42289;53.582;9.714;2022-08-21T03:46:05;101863.03;;;12.90;100.00
56392;BME280;42289;53.582;9.714;2022-08-21T03:48:33;101862.03;;;12.94;100.00
56392;BME280;42289;53.582;9.714;2022-08-21T03:51:00;101863.88;;;12.91;100.00
56392;BME280;42289;53.582;9.714;2022-08-21T03:53:27;101877.69;;;12.94;100.00
56392;BME280;42289;53.582;9.714;2022-08-21T03:55:55;101873.47;;;12.89;100.00
56392;BME280;42289;53.582;9.714;2022-08-21T03:58:26;101879.00;;;12.79;100.00
56392;BME280;42289;53.582;9.714;2022-08-21T04:00:55;101874.63;;;12.80;100.00
56392;BME280;42289;53.582;9.714;2022-08-21T04:03:22;101885.06;;;12.80;100.00
56392;BME280;42289;53.582;9.714;2022-08-21T04:05:48;101882.47;;;12.80;100.00
56392;BME280;42289;53.582;9.714;2022-08-21T04:08:16;101877.81;;;12.90;100.00
56392;BME280;42289;53.582;9.714;2022-08-21T04:10:45;101881.41;;;12.86;100.00
56392;BME280;42289;53.582;9.714;2022-08-21T04:13:14;101879.56;;;12.89;100.00
56392;BME280;42289;53.582;9.714;2022-08-21T04:15:40;101882.94;;;12.93;100.00
56392;BME280;42289;53.582;9.714;2022-08-21T04:18:07;101878.91;;;13.11;100.00
56392;BME280;42289;53.582;9.714;2022-08-21T04:20:35;101869.91;;;13.20;100.00
56392;BME280;42289;53.582;9.714;2022-08-21T04:23:01;101872.44;;;13.23;100.00
56392;BME280;42289;53.582;9.714;2022-08-21T04:25:28;101882.59;;;13.30;100.00
56392;BME280;42289;53.582;9.714;2022-08-21T04:27:54;101879.53;;;13.46;100.00
56392;BME280;42289;53.582;9.714;2022-08-21T04:30:22;101875.72;;;13.55;100.00
56392;BME280;42289;53.582;9.714;2022-08-21T04:32:50;101866.56;;;13.68;100.00
56392;BME280;42289;53.582;9.714;2022-08-21T04:35:18;101856.50;;;13.83;100.00
56392;BME280;42289;53.582;9.714;2022-08-21T04:37:45;101838.50;;;13.99;100.00
56392;BME280;42289;53.582;9.714;2022-08-21T04:40:14;101820.13;;;14.00;100.00
56392;BME280;42289;53.582;9.714;2022-08-21T04:42:42;101779.78;;;14.07;100.00
56392;BME280;42289;53.582;9.714;2022-08-21T04:45:18;101728.16;;;14.12;100.00
56392;BME280;42289;53.582;9.714;2022-08-21T04:47:49;101670.28;;;14.22;100.00
56392;BME280;42289;53.582;9.714;2022-08-21T04:50:17;101624.78;;;14.26;100.00
56392;BME280;42289;53.582;9.714;2022-08-21T04:52:43;101573.44;;;14.23;100.00
56392;BME280;42289;53.582;9.714;2022-08-21T04:55:10;101531.22;;;14.33;100.00
56392;BME280;42289;53.582;9.714;2022-08-21T04:57:37;101489.22;;;14.36;100.00
56392;BME280;42289;53.582;9.714;2022-08-21T05:00:05;101480.91;;;14.46;100.00
56392;BME280;42289;53.582;9.714;2022-08-21T05:02:33;101429.53;;;14.45;100.00
56392;BME280;42289;53.582;9.714;2022-08-21T05:05:00;101406.00;;;14.45;100.00
56392;BME280;42289;53.582;9.714;2022-08-21T05:07:29;101367.84;;;14.59;100.00
56392;BME280;42289;53.582;9.714;2022-08-21T05:09:56;101327.06;;;14.55;100.00
56392;BME280;42289;53.582;9.714;2022-08-21T05:12:23;101280.50;;;14.61;100.00
56392;BME280;42289;53.582;9.714;2022-08-21T05:14:50;101280.97;;;14.71;100.00
56392;BME280;42289;53.582;9.714;2022-08-21T05:17:16;101241.25;;;14.61;100.00
56392;BME280;42289;53.582;9.714;2022-08-21T05:19:43;101193.50;;;14.58;100.00
56392;BME280;42289;53.582;9.714;2022-08-21T05:22:10;101208.25;;;14.59;100.00
56392;BME280;42289;53.582;9.714;2022-08-21T05:24:37;101205.63;;;14.59;100.00
56392;BME280;42289;53.582;9.714;2022-08-21T05:27:04;101210.22;;;14.73;100.00
56392;BME280;42289;53.582;9.714;2022-08-21T05:29:31;101186.75;;;14.71;100.00
56392;BME280;42289;53.582;9.714;2022-08-21T05:31:58;101182.00;;;14.79;100.00
56392;BME280;42289;53.582;9.714;2022-08-21T05:34:24;101166.50;;;14.75;100.00
56392;BME280;42289;53.582;9.714;2022-08-21T05:36:51;101188.84;;;14.82;100.00
56392;BME280;42289;53.582;9.714;2022-08-21T05:39:18;101184.13;;;14.89;100.00
56392;BME280;42289;53.582;9.714;2022-08-21T05:41:45;101188.69;;;14.85;100.00
56392;BME280;42289;53.582;9.714;2022-08-21T05:44:12;101200.84;;;14.86;100.00
56392;BME280;42289;53.582;9.714;2022-08-21T05:46:39;101178.91;;;14.89;100.00
56392;BME280;42289;53.582;9.714;2022-08-21T05:49:05;101169.03;;;14.94;100.00
56392;BME280;42289;53.582;9.714;2022-08-21T05:51:32;101152.66;;;14.90;100.00
56392;BME280;42289;53.582;9.714;2022-08-21T05:53:58;101132.31;;;14.95;100.00
56392;BME280;42289;53.582;9.714;2022-08-21T05:56:26;101122.50;;;14.99;100.00
56392;BME280;42289;53.582;9.714;2022-08-21T05:58:52;101124.28;;;14.99;100.00
56392;BME280;42289;53.582;9.714;2022-08-21T06:01:19;101121.91;;;14.94;100.00
56392;BME280;42289;53.582;9.714;2022-08-21T06:03:45;101115.75;;;14.95;100.00
56392;BME280;42289;53.582;9.714;2022-08-21T06:06:11;101117.75;;;14.90;100.00
56392;BME280;42289;53.582;9.714;2022-08-21T06:08:38;101114.47;;;14.86;100.00
56392;BME280;42289;53.582;9.714;2022-08-21T06:11:05;101105.22;;;14.79;100.00
56392;BME280;42289;53.582;9.714;2022-08-21T06:13:33;101102.38;;;14.84;100.00
56392;BME280;42289;53.582;9.714;2022-08-21T06:16:05;101093.97;;;14.94;100.00
56392;BME280;42289;53.582;9.714;2022-08-21T06:18:33;101097.84;;;15.03;100.00
56392;BME280;42289;53.582;9.714;2022-08-21T06:20:59;101083.03;;;15.20;100.00
56392;BME280;42289;53.582;9.714;2022-08-21T06:23:26;101070.72;;;15.38;100.00
56392;BME280;42289;53.582;9.714;2022-08-21T06:25:52;101029.38;;;15.59;100.00
56392;BME280;42289;53.582;9.714;2022-08-21T06:28:19;100968.63;;;16.13;100.00
56392;BME280;42289;53.582;9.714;2022-08-21T06:30:46;100826.81;;;16.72;100.00
56392;BME280;42289;53.582;9.714;2022-08-21T06:33:13;100749.13;;;17.36;100.00
56392;BME280;42289;53.582;9.714;2022-08-21T06:35:40;100740.66;;;17.69;100.00
56392;BME280;42289;53.582;9.714;2022-08-21T06:38:06;100733.84;;;18.16;100.00
56392;BME280;42289;53.582;9.714;2022-08-21T06:40:33;100754.31;;;18.86;100.00
56392;BME280;42289;53.582;9.714;2022-08-21T06:43:05;100845.31;;;19.14;100.00
56392;BME280;42289;53.582;9.714;2022-08-21T06:45:33;100964.22;;;19.58;100.00
56392;BME280;42289;53.582;9.714;2022-08-21T06:48:01;101034.09;;;20.12;100.00
56392;BME280;42289;53.582;9.714;2022-08-21T06:50:27;101115.19;;;20.57;100.00
56392;BME280;42289;53.582;9.714;2022-08-21T06:52:58;101179.41;;;20.93;100.00
56392;BME280;42289;53.582;9.714;2022-08-21T06:55:25;101201.41;;;20.93;100.00
56392;BME280;42289;53.582;9.714;2022-08-21T06:57:52;101213.00;;;21.15;100.00
56392;BME280;42289;53.582;9.714;2022-08-21T07:00:19;101221.44;;;21.54;100.00
56392;BME280;42289;53.582;9.714;2022-08-21T07:02:46;101224.91;;;21.66;100.00
56392;BME280;42289;53.582;9.714;2022-08-21T07:05:13;101278.63;;;22.23;100.00
56392;BME280;42289;53.582;9.714;2022-08-21T07:07:40;101269.00;;;21.99;100.00
56392;BME280;42289;53.582;9.714;2022-08-21T07:10:07;101314.03;;;22.66;100.00
56392;BME280;42289;53.582;9.714;2022-08-21T07:12:34;101295.09;;;22.71;100.00
56392;BME280;42289;53.582;9.714;2022-08-21T07:15:00;101299.66;;;23.01;100.00
56392;BME280;42289;53.582;9.714;2022-08-21T07:17:27;101330.31;;;22.94;100.00
56392;BME280;42289;53.582;9.714;2022-08-21T07:19:53;101340.09;;;22.93;100.00
56392;BME280;42289;53.582;9.714;2022-08-21T07:22:21;101324.47;;;23.32;100.00
56392;BME280;42289;53.582;9.714;2022-08-21T07:24:48;101360.97;;;23.92;100.00
56392;BME280;42289;53.582;9.714;2022-08-21T07:27:14;101386.63;;;24.13;100.00
56392;BME280;42289;53.582;9.714;2022-08-21T07:29:41;101368.97;;;24.43;100.00
56392;BME280;42289;53.582;9.714;2022-08-21T07:32:07;101400.25;;;24.80;100.00
56392;BME280;42289;53.582;9.714;2022-08-21T07:34:34;101428.97;;;25.55;100.00
56392;BME280;42289;53.582;9.714;2022-08-21T07:37:00;101401.81;;;24.92;100.00
56392;BME280;42289;53.582;9.714;2022-08-21T07:42:50;101405.28;;;25.32;100.00
56392;BME280;42289;53.582;9.714;2022-08-21T07:45:18;101397.81;;;24.47;100.00
56392;BME280;42289;53.582;9.714;2022-08-21T07:47:45;101409.53;;;25.05;100.00
56392;BME280;42289;53.582;9.714;2022-08-21T07:50:12;101411.72;;;24.80;100.00
56392;BME280;42289;53.582;9.714;2022-08-21T07:52:40;101403.13;;;24.47;100.00
56392;BME280;42289;53.582;9.714;2022-08-21T07:55:08;101406.84;;;24.95;100.00
56392;BME280;42289;53.582;9.714;2022-08-21T07:57:35;101407.13;;;25.02;100.00
56392;BME280;42289;53.582;9.714;2022-08-21T08:00:04;101426.88;;;24.99;100.00
56392;BME280;42289;53.582;9.714;2022-08-21T08:02:31;101436.97;;;26.02;100.00
56392;BME280;42289;53.582;9.714;2022-08-21T08:04:58;101457.03;;;27.17;100.00
56392;BME280;42289;53.582;9.714;2022-08-21T08:07:25;101463.31;;;26.25;100.00
56392;BME280;42289;53.582;9.714;2022-08-21T08:09:51;101474.47;;;26.38;100.00
56392;BME280;42289;53.582;9.714;2022-08-21T08:12:18;101471.56;;;26.87;100.00
56392;BME280;42289;53.582;9.714;2022-08-21T08:14:45;101456.28;;;26.24;100.00
56392;BME280;42289;53.582;9.714;2022-08-21T08:17:13;101448.13;;;25.88;100.00
56392;BME280;42289;53.582;9.714;2022-08-21T08:19:39;101460.28;;;26.75;100.00
56392;BME280;42289;53.582;9.714;2022-08-21T08:22:12;101476.50;;;27.72;100.00
56392;BME280;42289;53.582;9.714;2022-08-21T08:24:39;101458.06;;;27.25;100.00
56392;BME280;42289;53.582;9.714;2022-08-21T08:27:05;101462.44;;;27.08;100.00
56392;BME280;42289;53.582;9.714;2022-08-21T08:29:32;101472.69;;;28.27;100.00
56392;BME280;42289;53.582;9.714;2022-08-21T08:31:58;101465.78;;;28.51;100.00
56392;BME280;42289;53.582;9.714;2022-08-21T08:34:26;101468.97;;;27.67;100.00
56392;BME280;42289;53.582;9.714;2022-08-21T08:36:52;101464.63;;;27.30;100.00
56392;BME280;42289;53.582;9.714;2022-08-21T08:39:19;101463.47;;;27.43;100.00
56392;BME280;42289;53.582;9.714;2022-08-21T08:41:47;101456.16;;;27.53;100.00
56392;BME280;42289;53.582;9.714;2022-08-21T08:44:16;101466.25;;;28.46;100.00
56392;BME280;42289;53.582;9.714;2022-08-21T08:46:46;101471.75;;;28.79;100.00
56392;BME280;42289;53.582;9.714;2022-08-21T08:49:18;101462.91;;;28.10;100.00
56392;BME280;42289;53.582;9.714;2022-08-21T08:51:52;101462.69;;;28.29;100.00
56392;BME280;42289;53.582;9.714;2022-08-21T08:54:25;101466.84;;;28.66;100.00
56392;BME280;42289;53.582;9.714;2022-08-21T08:56:58;101466.88;;;28.32;100.00
56392;BME280;42289;53.582;9.714;2022-08-21T08:59:27;101466.22;;;28.73;100.00
56392;BME280;42289;53.582;9.714;2022-08-21T09:01:57;101463.09;;;29.02;100.00
56392;BME280;42289;53.582;9.714;2022-08-21T09:04:26;101456.84;;;28.34;100.00
56392;BME280;42289;53.582;9.714;2022-08-21T09:07:05;101460.84;;;28.64;100.00
56392;BME280;42289;53.582;9.714;2022-08-21T09:09:47;101462.72;;;28.80;100.00
56392;BME280;42289;53.582;9.714;2022-08-21T09:12:25;101456.03;;;28.07;100.00
56392;BME280;42289;53.582;9.714;2022-08-21T09:15:02;101457.03;;;28.92;100.00
56392;BME280;42289;53.582;9.714;2022-08-21T09:17:38;101454.31;;;28.67;100.00
56392;BME280;42289;53.582;9.714;2022-08-21T09:20:14;101452.72;;;27.61;100.00
56392;BME280;42289;53.582;9.714;2022-08-21T09:22:50;101444.44;;;27.98;100.00
56392;BME280;42289;53.582;9.714;2022-08-21T09:25:26;101444.84;;;28.46;100.00
56392;BME280;42289;53.582;9.714;2022-08-21T09:27:53;101446.28;;;28.24;100.00
56392;BME280;42289;53.582;9.714;2022-08-21T09:30:25;101433.34;;;27.59;100.00
56392;BME280;42289;53.582;9.714;2022-08-21T09:32:52;101432.34;;;27.60;100.00
56392;BME280;42289;53.582;9.714;2022-08-21T09:35:20;101441.44;;;27.67;100.00
56392;BME280;42289;53.582;9.714;2022-08-21T09:37:51;101423.31;;;26.80;100.00
56392;BME280;42289;53.582;9.714;2022-08-21T09:40:27;101429.16;;;26.66;100.00
56392;BME280;42289;53.582;9.714;2022-08-21T09:42:58;101422.63;;;26.50;100.00
56392;BME280;42289;53.582;9.714;2022-08-21T09:45:25;101400.41;;;25.57;100.00
56392;BME280;42289;53.582;9.714;2022-08-21T09:47:51;101371.41;;;24.75;100.00
56392;BME280;42289;53.582;9.714;2022-08-21T09:50:21;101357.88;;;24.28;100.00
56392;BME280;42289;53.582;9.714;2022-08-21T09:52:51;101353.41;;;24.28;100.00
56392;BME280;42289;53.582;9.714;2022-08-21T09:55:22;101341.41;;;23.41;100.00
56392;BME280;42289;53.582;9.714;2022-08-21T09:58:07;101324.25;;;23.03;100.00
56392;BME280;42289;53.582;9.714;2022-08-21T10:00:35;101320.44;;;23.59;100.00
56392;BME280;42289;53.582;9.714;2022-08-21T10:03:10;101339.59;;;23.94;100.00
56392;BME280;42289;53.582;9.714;2022-08-21T10:05:39;101361.91;;;24.12;100.00
56392;BME280;42289;53.582;9.714;2022-08-21T10:08:17;101401.63;;;24.64;100.00
56392;BME280;42289;53.582;9.714;2022-08-21T10:10:44;101385.00;;;25.11;100.00
56392;BME280;42289;53.582;9.714;2022-08-21T10:13:17;101391.16;;;25.41;100.00
56392;BME280;42289;53.582;9.714;2022-08-21T10:15:51;101418.34;;;25.15;100.00
56392;BME280;42289;53.582;9.714;2022-08-21T10:18:26;101411.06;;;25.17;100.00
56392;BME280;42289;53.582;9.714;2022-08-21T10:21:01;101416.91;;;25.70;100.00
56392;BME280;42289;53.582;9.714;2022-08-21T10:23:45;101403.84;;;25.67;100.00
56392;BME280;42289;53.582;9.714;2022-08-21T10:26:25;101376.63;;;24.96;100.00
56392;BME280;42289;53.582;9.714;2022-08-21T10:28:56;101404.53;;;24.51;100.00
56392;BME280;42289;53.582;9.714;2022-08-21T10:31:34;101418.72;;;24.62;100.00
56392;BME280;42289;53.582;9.714;2022-08-21T10:34:10;101407.13;;;25.02;100.00
56392;BME280;42289;53.582;9.714;2022-08-21T10:37:01;101387.66;;;24.62;100.00
56392;BME280;42289;53.582;9.714;2022-08-21T10:39:35;101394.66;;;24.73;100.00
56392;BME280;42289;53.582;9.714;2022-08-21T10:42:17;101405.78;;;24.47;100.00
56392;BME280;42289;53.582;9.714;2022-08-21T10:45:00;101409.22;;;24.89;100.00
56392;BME280;42289;53.582;9.714;2022-08-21T10:47:30;101402.41;;;25.35;100.00
56392;BME280;42289;53.582;9.714;2022-08-21T10:50:07;101427.59;;;24.92;100.00
56392;BME280;42289;53.582;9.714;2022-08-21T10:52:52;101407.69;;;25.06;100.00
56392;BME280;42289;53.582;9.714;2022-08-21T10:55:26;101404.56;;;24.71;100.00
56392;BME280;42289;53.582;9.714;2022-08-21T10:57:57;101427.81;;;24.69;100.00
56392;BME280;42289;53.582;9.714;2022-08-21T11:00:28;101416.66;;;25.24;100.00
56392;BME280;42289;53.582;9.714;2022-08-21T11:03:01;101396.22;;;24.85;100.00
56392;BME280;42289;53.582;9.714;2022-08-21T11:05:33;101364.28;;;24.66;100.00
56392;BME280;42289;53.582;9.714;2022-08-21T11:08:02;101378.91;;;24.41;100.00
56392;BME280;42289;53.582;9.714;2022-08-21T11:10:37;101341.91;;;24.08;100.00
56392;BME280;42289;53.582;9.714;2022-08-21T11:13:11;101314.88;;;23.41;100.00
56392;BME280;42289;53.582;9.714;2022-08-21T11:15:48;101315.75;;;22.88;100.00
56392;BME280;42289;53.582;9.714;2022-08-21T11:18:22;101297.47;;;22.85;100.00
56392;BME280;42289;53.582;9.714;2022-08-21T11:20:59;101276.44;;;22.93;100.00
56392;BME280;42289;53.582;9.714;2022-08-21T11:23:34;101291.22;;;23.28;100.00
56392;BME280;42289;53.582;9.714;2022-08-21T11:26:08;101295.84;;;23.36;100.00
56392;BME280;42289;53.582;9.714;2022-08-21T11:28:43;101337.69;;;23.54;100.00
56392;BME280;42289;53.582;9.714;2022-08-21T11:31:22;101339.72;;;23.61;100.00
56392;BME280;42289;53.582;9.714;2022-08-21T11:34:00;101339.34;;;23.24;100.00
56392;BME280;42289;53.582;9.714;2022-08-21T11:36:38;101304.66;;;23.15;100.00
56392;BME280;42289;53.582;9.714;2022-08-21T11:39:17;101336.56;;;22.93;100.00
56392;BME280;42289;53.582;9.714;2022-08-21T11:41:54;101292.13;;;22.64;100.00
56392;BME280;42289;53.582;9.714;2022-08-21T11:44:43;101290.91;;;22.68;100.00
56392;BME280;42289;53.582;9.714;2022-08-21T11:47:19;101301.88;;;22.63;100.00
56392;BME280;42289;53.582;9.714;2022-08-21T11:49:59;101291.91;;;22.56;100.00
56392;BME280;42289;53.582;9.714;2022-08-21T11:52:31;101284.72;;;22.46;100.00
56392;BME280;42289;53.582;9.714;2022-08-21T11:55:05;101293.84;;;22.54;100.00
56392;BME280;42289;53.582;9.714;2022-08-21T11:57:36;101324.16;;;22.93;100.00
56392;BME280;42289;53.582;9.714;2022-08-21T12:00:10;101283.38;;;23.06;100.00
56392;BME280;42289;53.582;9.714;2022-08-21T12:02:44;101333.84;;;22.83;100.00
56392;BME280;42289;53.582;9.714;2022-08-21T12:05:23;101328.59;;;22.72;100.00
56392;BME280;42289;53.582;9.714;2022-08-21T12:08:01;101262.56;;;22.68;100.00
56392;BME280;42289;53.582;9.714;2022-08-21T12:10:34;101270.91;;;22.64;100.00
56392;BME280;42289;53.582;9.714;2022-08-21T12:13:11;101325.81;;;22.73;100.00
56392;BME280;42289;53.582;9.714;2022-08-21T12:15:38;101288.84;;;22.72;100.00
56392;BME280;42289;53.582;9.714;2022-08-21T12:18:18;101337.38;;;22.72;100.00
56392;BME280;42289;53.582;9.714;2022-08-21T12:20:58;101357.09;;;22.79;100.00
56392;BME280;42289;53.582;9.714;2022-08-21T12:23:28;101347.63;;;22.65;100.00
56392;BME280;42289;53.582;9.714;2022-08-21T12:26:10;101280.13;;;22.48;100.00
56392;BME280;42289;53.582;9.714;2022-08-21T12:28:41;101233.78;;;21.99;100.00
56392;BME280;42289;53.582;9.714;2022-08-21T12:31:18;101329.91;;;21.77;100.00
56392;BME280;42289;53.582;9.714;2022-08-21T12:33:50;101348.31;;;22.01;100.00
56392;BME280;42289;53.582;9.714;2022-08-21T12:36:21;101300.88;;;22.09;100.00
56392;BME280;42289;53.582;9.714;2022-08-21T12:38:54;101340.22;;;22.25;100.00
56392;BME280;42289;53.582;9.714;2022-08-21T12:41:26;101327.81;;;22.48;100.00
56392;BME280;42289;53.582;9.714;2022-08-21T12:43:57;101356.63;;;22.85;100.00
56392;BME280;42289;53.582;9.714;2022-08-21T12:46:32;101373.88;;;22.80;100.00
56392;BME280;42289;53.582;9.714;2022-08-21T12:49:03;101324.63;;;22.66;100.00
56392;BME280;42289;53.582;9.714;2022-08-21T12:51:38;101290.28;;;22.43;100.00
56392;BME280;42289;53.582;9.714;2022-08-21T12:54:09;101301.56;;;22.45;100.00
56392;BME280;42289;53.582;9.714;2022-08-21T12:56:35;101369.47;;;22.58;100.00